Time;durP1;ratioP1;P1;durP2;ratioP2;P2;SDS_P1;SDS_P2;PMS_P1;PMS_P2;Temp;Humidity;BMP_temperature;BMP_pressure;BME280_temperature;BME280_humidity;BME280_pressure;Samples;Min_cycle;Max_cycle;Signal;HPM_P1;HPM_P2
2022/03/16 00:02:08;;;;;;;56.55;27.77;;;;;;;3.73;47.50;96442.28;5085087;28;20059;-82
2022/03/16 00:04:34;;;;;;;53.85;26.05;;;;;;;3.74;47.38;96445.78;5084344;28;20032;-83
2022/03/16 00:06:59;;;;;;;56.42;27.35;;;;;;;3.68;47.81;96439.09;5066478;28;20020;-81
2022/03/16 00:09:24;;;;;;;46.90;25.55;;;;;;;3.67;47.93;96442.72;5085782;28;20047;-82
2022/03/16 00:11:50;;;;;;;49.50;25.77;;;;;;;3.65;48.20;96440.19;5084658;28;20418;-82
2022/03/16 00:14:16;;;;;;;54.63;27.10;;;;;;;3.71;48.27;96442.41;5084324;28;20442;-83
2022/03/16 00:16:41;;;;;;;48.08;24.52;;;;;;;3.64;49.72;96450.91;5067736;28;20031;-82
2022/03/16 00:19:07;;;;;;;56.65;28.05;;;;;;;3.64;47.64;96434.97;5085221;28;20020;-82
2022/03/16 00:21:33;;;;;;;51.45;27.52;;;;;;;3.55;48.75;96434.66;5085582;28;20435;-84
2022/03/16 00:23:59;;;;;;;53.88;26.00;;;;;;;3.47;49.60;96426.41;5084335;28;20544;-83
2022/03/16 00:26:25;;;;;;;54.00;25.70;;;;;;;3.44;50.22;96423.97;5084441;28;20020;-83
2022/03/16 00:28:50;;;;;;;58.25;28.75;;;;;;;3.46;48.87;96430.88;5084517;28;20146;-83
2022/03/16 00:31:15;;;;;;;68.30;30.25;;;;;;;3.41;49.29;96421.53;5085972;28;20054;-83
2022/03/16 00:33:41;;;;;;;65.47;28.73;;;;;;;3.39;49.19;96421.66;5083745;28;20497;-83
2022/03/16 00:36:06;;;;;;;51.45;27.42;;;;;;;3.36;50.07;96410.41;5085330;28;20020;-82
2022/03/16 00:38:32;;;;;;;53.15;26.83;;;;;;;3.36;50.10;96399.78;5083734;28;20035;-83
2022/03/16 00:40:57;;;;;;;71.55;30.30;;;;;;;3.33;49.13;96403.50;5084733;28;20016;-82
2022/03/16 00:43:23;;;;;;;64.70;31.30;;;;;;;3.37;49.27;96391.72;5085044;28;20024;-82
2022/03/16 00:45:48;;;;;;;62.03;30.17;;;;;;;3.37;50.02;96388.25;5083061;28;20031;-81
2022/03/16 00:48:13;;;;;;;65.60;30.42;;;;;;;3.37;49.33;96393.53;5083718;28;20081;-82
2022/03/16 00:50:39;;;;;;;75.65;32.35;;;;;;;3.40;49.17;96378.25;5084575;28;20074;-83
2022/03/16 00:53:04;;;;;;;65.78;31.63;;;;;;;3.38;49.58;96368.72;5085463;28;20479;-84
2022/03/16 00:55:30;;;;;;;73.28;32.17;;;;;;;2.87;50.93;96362.50;5086902;28;20498;-83
2022/03/16 00:57:55;;;;;;;60.13;28.73;;;;;;;2.68;51.30;96366.41;5089018;28;20513;-83
2022/03/16 01:00:21;;;;;;;52.28;26.55;;;;;;;2.87;50.20;96365.16;5088567;28;20039;-82
2022/03/16 01:02:46;;;;;;;66.45;29.73;;;;;;;2.94;50.95;96361.97;5087364;28;20031;-82
2022/03/16 01:05:11;;;;;;;52.65;27.55;;;;;;;3.06;51.55;96364.72;5087559;28;20035;-84
2022/03/16 01:07:37;;;;;;;51.78;26.63;;;;;;;3.13;52.01;96362.50;5088222;28;20032;-84
2022/03/16 01:10:03;;;;;;;53.30;28.08;;;;;;;3.20;51.69;96361.97;5087696;28;20032;-83
2022/03/16 01:12:29;;;;;;;59.42;27.77;;;;;;;2.96;50.64;96359.22;5070129;28;20036;-83
2022/03/16 01:14:54;;;;;;;54.22;29.10;;;;;;;2.94;51.49;96350.50;5088967;28;20032;-84
2022/03/16 01:17:20;;;;;;;59.95;29.15;;;;;;;2.91;51.19;96356.88;5088738;28;20031;-84
2022/03/16 01:19:45;;;;;;;65.95;27.90;;;;;;;2.91;51.11;96350.72;5070377;28;20399;-84
2022/03/16 01:22:11;;;;;;;62.22;27.15;;;;;;;2.99;51.68;96340.44;5086724;28;20465;-84
2022/03/16 01:24:36;;;;;;;55.13;26.85;;;;;;;3.07;51.15;96338.13;5069270;28;20518;-83
2022/03/16 01:27:02;;;;;;;52.17;27.10;;;;;;;3.17;52.69;96330.38;5087350;28;20044;-84
2022/03/16 01:29:27;;;;;;;57.88;27.63;;;;;;;3.11;52.74;96322.84;5087609;28;20091;-83
2022/03/16 01:31:53;;;;;;;51.13;27.00;;;;;;;3.05;52.98;96332.06;5070855;28;20448;-84
2022/03/16 01:34:19;;;;;;;48.13;23.52;;;;;;;2.92;52.05;96333.88;5086940;28;20032;-84
2022/03/16 01:36:44;;;;;;;53.17;25.95;;;;;;;2.95;52.72;96320.44;5071240;28;20498;-84
2022/03/16 01:39:10;;;;;;;50.88;24.60;;;;;;;2.94;52.57;96324.00;5087035;28;20024;-85
2022/03/16 01:41:35;;;;;;;49.10;26.08;;;;;;;2.96;52.83;96330.06;5087979;28;20023;-84
2022/03/16 01:44:01;;;;;;;41.90;21.42;;;;;;;3.05;52.02;96315.31;5088386;28;20021;-84
2022/03/16 01:46:27;;;;;;;45.40;21.52;;;;;;;3.12;51.58;96298.03;5069306;28;20031;-84
2022/03/16 01:48:52;;;;;;;35.92;18.90;;;;;;;3.19;51.70;96298.44;5088434;28;20036;-83
2022/03/16 01:51:18;;;;;;;39.70;19.88;;;;;;;3.21;51.20;96307.13;5069073;28;20133;-84
2022/03/16 01:53:43;;;;;;;40.00;18.77;;;;;;;3.14;50.84;96304.06;5088794;28;20028;-84
2022/03/16 01:56:09;;;;;;;34.78;18.92;;;;;;;3.14;50.63;96301.41;5072193;28;20028;-85
2022/03/16 01:58:35;;;;;;;32.35;17.20;;;;;;;3.13;51.36;96306.84;5087434;28;20020;-84
2022/03/16 02:01:00;;;;;;;28.95;16.02;;;;;;;3.09;51.55;96303.53;5087929;28;20026;-83
2022/03/16 02:03:26;;;;;;;25.50;15.05;;;;;;;3.06;51.67;96296.63;5087497;28;20028;-83
2022/03/16 02:05:51;;;;;;;30.35;15.32;;;;;;;3.01;52.08;96292.63;5089358;28;20520;-83
2022/03/16 02:08:16;;;;;;;35.50;17.75;;;;;;;3.03;52.37;96288.91;5086642;28;20027;-83
2022/03/16 02:10:42;;;;;;;34.88;19.27;;;;;;;3.03;52.08;96286.25;5090078;28;20445;-83
2022/03/16 02:13:11;;;;;;;37.47;18.25;;;;;;;2.98;52.03;96293.72;5088544;28;20418;-84
2022/03/16 02:15:36;;;;;;;44.00;21.00;;;;;;;2.96;52.08;96295.63;5090183;28;20035;-83
2022/03/16 02:18:02;;;;;;;32.67;18.77;;;;;;;3.04;51.78;96285.31;5088837;28;20024;-84
2022/03/16 02:20:28;;;;;;;32.10;18.95;;;;;;;3.01;52.36;96287.34;5084952;28;20027;-83
2022/03/16 02:22:54;;;;;;;44.70;21.50;;;;;;;3.05;52.98;96281.69;5087725;28;20057;-83
2022/03/16 02:25:19;;;;;;;36.83;19.17;;;;;;;3.12;52.78;96270.66;5068400;28;20113;-83
2022/03/16 02:27:44;;;;;;;31.92;16.58;;;;;;;3.09;51.89;96274.38;5086237;28;20032;-82
2022/03/16 02:30:11;;;;;;;30.00;16.70;;;;;;;3.22;52.11;96272.53;5068526;28;20028;-83
2022/03/16 02:32:36;;;;;;;30.10;16.30;;;;;;;3.17;52.08;96271.19;5086030;28;20016;-83
2022/03/16 02:35:02;;;;;;;33.72;17.08;;;;;;;3.08;52.00;96273.53;5087227;28;20040;-83
2022/03/16 02:37:27;;;;;;;28.83;15.75;;;;;;;3.01;52.49;96267.00;5085631;28;20068;-83
2022/03/16 02:39:53;;;;;;;28.92;14.95;;;;;;;3.09;51.75;96275.22;5087094;28;20020;-83
2022/03/16 02:42:19;;;;;;;27.35;15.70;;;;;;;3.00;52.46;96273.22;5085344;28;20028;-83
2022/03/16 02:44:44;;;;;;;31.13;16.40;;;;;;;3.17;52.08;96266.75;5087005;28;20486;-82
2022/03/16 02:47:10;;;;;;;33.28;16.50;;;;;;;3.15;51.88;96273.94;5086864;28;20024;-84
2022/03/16 02:49:35;;;;;;;32.50;17.98;;;;;;;3.08;52.83;96260.28;5069070;28;20493;-83
2022/03/16 02:52:08;;;;;;;36.58;18.25;;;;;;;3.12;51.89;96262.72;5086158;28;20487;-84
2022/03/16 02:54:34;;;;;;;35.55;18.70;;;;;;;3.06;52.31;96259.53;5086811;28;20024;-83
2022/03/16 02:57:00;;;;;;;34.25;19.20;;;;;;;3.15;52.25;96254.53;5085316;28;20109;-83
2022/03/16 02:59:25;;;;;;;32.58;19.50;;;;;;;3.16;52.05;96250.94;5085694;28;20034;-83
2022/03/16 03:01:51;;;;;;;41.17;19.35;;;;;;;3.15;52.10;96246.56;5086409;28;20027;-83
2022/03/16 03:04:16;;;;;;;34.92;19.75;;;;;;;3.12;51.91;96233.56;5086436;28;20490;-83
2022/03/16 03:06:42;;;;;;;40.83;20.35;;;;;;;3.09;51.04;96231.97;5087126;28;20531;-83
2022/03/16 03:09:07;;;;;;;37.55;20.02;;;;;;;3.18;51.28;96236.59;5085063;28;20028;-82
2022/03/16 03:11:33;;;;;;;34.08;19.30;;;;;;;3.09;51.69;96238.09;5086134;28;20595;-83
2022/03/16 03:13:58;;;;;;;39.10;19.95;;;;;;;3.11;51.63;96235.38;5085028;28;20016;-83
2022/03/16 03:16:23;;;;;;;35.60;20.30;;;;;;;3.16;52.42;96237.69;5086993;28;20495;-83
2022/03/16 03:18:49;;;;;;;39.50;21.23;;;;;;;3.07;53.34;96228.59;5085881;28;20433;-83
2022/03/16 03:21:14;;;;;;;43.58;21.30;;;;;;;3.04;52.95;96232.31;5084938;28;20418;-83
2022/03/16 03:23:40;;;;;;;36.00;19.85;;;;;;;3.13;52.93;96233.44;5084848;28;20029;-83
2022/03/16 03:26:05;;;;;;;37.17;20.55;;;;;;;3.09;53.45;96234.63;5085319;28;20048;-83
2022/03/16 03:28:31;;;;;;;36.38;20.42;;;;;;;3.22;53.29;96230.13;5086524;28;20036;-82
2022/03/16 03:30:56;;;;;;;39.70;19.58;;;;;;;3.17;53.72;96231.41;5084206;28;20024;-82
2022/03/16 03:33:22;;;;;;;35.17;19.25;;;;;;;3.05;53.64;96234.00;5085260;28;20028;-83
2022/03/16 03:35:48;;;;;;;31.42;17.70;;;;;;;3.09;54.01;96231.97;5084907;28;20039;-83
2022/03/16 03:38:14;;;;;;;36.63;20.27;;;;;;;3.04;54.72;96215.56;5086562;28;20471;-82
2022/03/16 03:40:40;;;;;;;32.08;18.55;;;;;;;3.11;54.69;96218.63;5085882;28;20062;-82
2022/03/16 03:43:05;;;;;;;38.22;22.10;;;;;;;3.04;54.36;96229.66;5085848;28;20402;-82
2022/03/16 03:45:31;;;;;;;40.72;22.00;;;;;;;3.00;54.33;96230.81;5086297;28;20046;-84
2022/03/16 03:47:57;;;;;;;41.47;21.45;;;;;;;3.00;54.26;96230.81;5085249;28;20024;-83
2022/03/16 03:50:22;;;;;;;38.03;20.90;;;;;;;2.97;54.49;96217.78;5086535;28;20754;-83
2022/03/16 03:52:48;;;;;;;43.03;19.15;;;;;;;3.00;54.27;96217.56;5085792;28;20016;-84
2022/03/16 03:55:13;;;;;;;40.55;21.05;;;;;;;2.97;54.21;96223.09;5086261;28;20031;-82
2022/03/16 03:57:39;;;;;;;39.17;21.00;;;;;;;2.79;54.49;96215.50;5085602;28;20543;-82
2022/03/16 04:00:05;;;;;;;39.38;22.73;;;;;;;2.79;54.49;96215.50;5085179;28;20456;-82
2022/03/16 04:02:31;;;;;;;40.55;21.15;;;;;;;2.80;54.19;96217.22;5085689;28;20031;-83
2022/03/16 04:04:56;;;;;;;44.15;22.13;;;;;;;2.81;54.16;96223.34;5085031;28;20096;-83
2022/03/16 04:07:22;;;;;;;43.00;22.52;;;;;;;2.75;54.69;96208.75;5085901;28;20035;-82
2022/03/16 04:09:48;;;;;;;49.25;23.77;;;;;;;2.77;55.76;96209.50;5084998;28;20028;-82
2022/03/16 04:12:14;;;;;;;42.03;22.88;;;;;;;2.74;54.84;96212.31;5084725;28;20039;-82
2022/03/16 04:14:40;;;;;;;41.75;21.45;;;;;;;2.90;55.09;96201.47;5066217;28;20016;-82
2022/03/16 04:17:05;;;;;;;41.75;21.75;;;;;;;2.81;54.91;96205.66;5084013;28;20453;-83
2022/03/16 04:19:31;;;;;;;40.58;22.73;;;;;;;2.62;55.51;96207.91;5083731;28;20039;-82
2022/03/16 04:21:56;;;;;;;46.25;24.13;;;;;;;2.58;56.27;96201.97;5084184;28;20021;-83
2022/03/16 04:24:21;;;;;;;46.47;23.67;;;;;;;2.68;56.08;96199.53;5084065;28;20486;-83
2022/03/16 04:26:47;;;;;;;45.53;23.75;;;;;;;2.58;56.00;96196.66;5066430;28;20071;-82
2022/03/16 04:29:12;;;;;;;47.92;24.30;;;;;;;2.59;56.17;96187.78;5084817;28;20025;-81
2022/03/16 04:31:38;;;;;;;50.65;25.90;;;;;;;2.61;55.29;96183.25;5084508;28;20035;-81
2022/03/16 04:34:03;;;;;;;45.67;24.13;;;;;;;2.66;55.14;96185.56;5086764;28;20024;-83
2022/03/16 04:36:31;;;;;;;45.53;24.90;;;;;;;2.72;54.53;96185.94;5082545;28;20040;-82
2022/03/16 04:38:57;;;;;;;51.17;23.83;;;;;;;2.74;54.62;96185.84;5083924;28;20032;-81
2022/03/16 04:41:23;;;;;;;47.30;23.50;;;;;;;2.75;54.20;96184.03;5085910;28;20028;-84
2022/03/16 04:43:48;;;;;;;43.25;23.48;;;;;;;2.69;54.12;96183.50;5085809;28;20444;-82
2022/03/16 04:46:13;;;;;;;40.47;22.00;;;;;;;2.71;53.84;96176.31;5066821;28;20507;-83
2022/03/16 04:48:39;;;;;;;40.35;22.90;;;;;;;2.91;53.07;96168.75;5066442;28;20021;-82
2022/03/16 04:51:05;;;;;;;46.03;23.90;;;;;;;2.87;54.04;96169.06;5085324;28;20024;-82
2022/03/16 04:53:30;;;;;;;41.50;23.83;;;;;;;2.95;54.27;96172.84;5083243;28;20491;-83
2022/03/16 04:55:56;;;;;;;48.08;24.25;;;;;;;2.95;53.10;96172.84;5083843;28;20111;-83
2022/03/16 04:58:21;;;;;;;49.13;24.23;;;;;;;2.93;52.52;96163.34;5083517;28;20027;-82
2022/03/16 05:00:47;;;;;;;53.30;24.92;;;;;;;2.94;52.96;96144.66;5081825;28;20036;-83
2022/03/16 05:03:12;;;;;;;46.15;25.52;;;;;;;3.07;54.51;96160.53;5084619;28;20047;-83
2022/03/16 05:05:39;;;;;;;47.28;26.88;;;;;;;3.00;55.30;96161.09;5084190;28;20531;-83
2022/03/16 05:08:04;;;;;;;53.90;28.70;;;;;;;3.06;55.25;96158.00;5085254;28;20028;-82
2022/03/16 05:10:30;;;;;;;46.85;25.80;;;;;;;3.00;55.09;96161.09;5066193;28;20423;-83
2022/03/16 05:12:55;;;;;;;51.83;25.15;;;;;;;3.04;53.73;96160.75;5083958;28;20036;-84
2022/03/16 05:15:21;;;;;;;47.30;25.08;;;;;;;3.09;52.70;96137.38;5084902;28;20031;-83
2022/03/16 05:17:46;;;;;;;52.47;23.98;;;;;;;3.06;52.62;96156.16;5070733;28;20035;-82
2022/03/16 05:20:12;;;;;;;44.08;23.52;;;;;;;3.05;52.96;96146.53;5082989;28;20024;-82
2022/03/16 05:22:48;;;;;;;46.97;24.20;;;;;;;3.11;53.46;96153.19;5076189;28;20020;-82
2022/03/16 05:25:16;;;;;;;52.60;24.20;;;;;;;3.09;54.13;96136.56;5074553;28;20043;-83
2022/03/16 05:27:41;;;;;;;48.85;23.92;;;;;;;3.20;53.26;96133.97;5078428;28;20484;-83
2022/03/16 05:30:07;;;;;;;51.35;24.55;;;;;;;3.16;53.05;96126.34;5081448;28;20046;-81
2022/03/16 05:32:33;;;;;;;51.38;24.35;;;;;;;3.15;53.62;96124.63;5077222;28;20115;-82
2022/03/16 05:34:58;;;;;;;54.92;27.02;;;;;;;3.00;53.17;96110.72;5073471;28;20062;-82
2022/03/16 05:37:24;;;;;;;54.53;28.48;;;;;;;2.89;53.55;96115.00;5042498;28;20515;-81
2022/03/16 05:39:49;;;;;;;72.85;35.10;;;;;;;2.73;53.48;96112.63;5081675;28;20547;-81
2022/03/16 05:42:15;;;;;;;67.32;32.88;;;;;;;2.68;54.08;96118.25;5063033;28;20410;-81
2022/03/16 05:44:40;;;;;;;58.33;32.08;;;;;;;2.67;53.90;96107.78;5081177;28;20619;-82
2022/03/16 05:47:06;;;;;;;61.40;32.40;;;;;;;2.65;54.46;96112.31;5082414;28;20039;-81
2022/03/16 05:49:31;;;;;;;53.33;27.55;;;;;;;2.61;54.43;96111.72;5081242;28;20044;-78
2022/03/16 05:51:56;;;;;;;58.72;27.70;;;;;;;2.66;54.54;96114.88;5085291;28;20024;-82
2022/03/16 05:54:22;;;;;;;56.72;28.00;;;;;;;2.56;54.66;96109.38;5065109;28;20035;-81
2022/03/16 05:56:47;;;;;;;59.13;31.65;;;;;;;2.58;54.76;96118.06;5080492;28;20437;-87
2022/03/16 05:59:13;;;;;;;63.67;31.25;;;;;;;2.51;54.97;96116.84;5064692;28;20101;-81
2022/03/16 06:01:38;;;;;;;77.85;35.55;;;;;;;2.51;55.61;96116.84;5087241;28;20486;-85
2022/03/16 06:04:04;;;;;;;78.05;36.85;;;;;;;2.44;56.31;96116.41;5088206;28;20044;-86
2022/03/16 06:06:31;;;;;;;73.75;34.15;;;;;;;2.42;57.04;96120.16;5046665;28;20040;-83
2022/03/16 06:08:56;;;;;;;64.13;32.90;;;;;;;2.38;56.83;96118.66;5083524;28;20024;-81
2022/03/16 06:11:22;;;;;;;61.67;31.55;;;;;;;2.35;57.52;96111.78;5087063;28;20039;-87
2022/03/16 06:13:47;;;;;;;61.33;30.30;;;;;;;2.43;56.86;96104.16;5088506;28;20020;-87
2022/03/16 06:16:13;;;;;;;58.40;28.95;;;;;;;2.43;57.32;96106.78;5089012;28;20069;-87
2022/03/16 06:18:38;;;;;;;55.75;28.85;;;;;;;2.54;57.01;96116.63;5090473;28;20408;-86
2022/03/16 06:21:04;;;;;;;60.25;28.98;;;;;;;2.56;56.51;96113.84;5093192;28;20016;-87
2022/03/16 06:23:29;;;;;;;50.15;26.73;;;;;;;2.66;56.32;96108.75;5087575;28;20027;-86
2022/03/16 06:25:55;;;;;;;55.33;28.27;;;;;;;2.73;56.28;96109.97;5088776;28;20193;-86
2022/03/16 06:28:20;;;;;;;50.35;26.65;;;;;;;2.74;56.12;96108.19;5088695;28;20039;-88
2022/03/16 06:30:46;;;;;;;50.03;25.58;;;;;;;2.64;56.31;96110.66;5090036;28;20040;-86
2022/03/16 06:33:11;;;;;;;48.55;26.95;;;;;;;2.66;56.35;96109.56;5070672;28;20028;-87
2022/03/16 06:35:37;;;;;;;54.92;26.80;;;;;;;2.78;56.24;96112.28;5090284;28;20024;-85
2022/03/16 06:38:02;;;;;;;55.80;26.55;;;;;;;2.95;56.11;96111.06;5089983;28;20032;-87
2022/03/16 06:40:28;;;;;;;52.75;27.80;;;;;;;2.96;55.98;96120.72;5088620;28;20516;-86
2022/03/16 06:42:55;;;;;;;61.92;29.75;;;;;;;3.01;56.09;96110.63;5088675;28;20039;-88
2022/03/16 06:45:21;;;;;;;58.05;29.17;;;;;;;3.05;55.48;96113.88;5088047;28;20032;-86
2022/03/16 06:47:46;;;;;;;58.17;27.52;;;;;;;3.12;55.68;96109.81;5089377;28;20097;-88
2022/03/16 06:50:12;;;;;;;59.33;28.40;;;;;;;3.19;55.26;96112.88;5088057;28;20023;-88
2022/03/16 06:52:39;;;;;;;58.22;30.75;;;;;;;3.22;54.49;96116.09;5088867;28;20073;-87
2022/03/16 06:55:06;;;;;;;60.13;29.10;;;;;;;3.16;54.56;96115.75;5088289;28;20027;-88
2022/03/16 06:57:31;;;;;;;62.63;30.55;;;;;;;3.22;54.76;96110.81;5086911;28;20111;-88
2022/03/16 06:59:57;;;;;;;58.03;29.33;;;;;;;3.30;54.06;96101.44;5086928;28;20077;-88
2022/03/16 07:02:22;;;;;;;62.88;30.67;;;;;;;3.41;54.31;96103.28;5086203;28;20035;-88
2022/03/16 07:04:47;;;;;;;62.05;28.95;;;;;;;3.41;53.76;96103.28;5088214;28;20024;-87
2022/03/16 07:07:13;;;;;;;56.20;29.73;;;;;;;3.46;52.83;96101.13;5086584;28;20024;-87
2022/03/16 07:09:38;;;;;;;54.20;28.75;;;;;;;3.55;52.97;96100.44;5088552;28;20511;-88
2022/03/16 07:12:04;;;;;;;66.97;29.42;;;;;;;3.53;54.14;96097.06;5087252;28;20024;-85
2022/03/16 07:14:32;;;;;;;51.45;27.83;;;;;;;3.59;53.32;96095.75;5086285;28;20032;-86
2022/03/16 07:16:58;;;;;;;57.63;29.55;;;;;;;3.69;54.03;96101.22;5087676;28;20418;-86
2022/03/16 07:19:24;;;;;;;58.70;30.27;;;;;;;3.70;52.72;96092.28;5086873;28;20055;-87
2022/03/16 07:21:49;;;;;;;56.92;28.75;;;;;;;3.68;52.75;96094.19;5087287;28;20024;-86
2022/03/16 07:24:15;;;;;;;59.83;29.13;;;;;;;3.81;52.90;96097.59;5087483;28;20073;-86
2022/03/16 07:26:40;;;;;;;61.28;30.42;;;;;;;3.81;53.43;96086.97;5071790;28;20109;-88
2022/03/16 07:29:06;;;;;;;58.10;29.92;;;;;;;3.83;53.57;96098.34;5087139;28;20024;-88
2022/03/16 07:31:31;;;;;;;63.75;31.60;;;;;;;4.02;54.09;96094.25;5070868;28;20023;-88
2022/03/16 07:33:57;;;;;;;63.95;33.85;;;;;;;4.00;53.53;96087.38;5088857;28;20031;-87
2022/03/16 07:36:23;;;;;;;74.80;34.20;;;;;;;4.06;53.70;96089.53;5098348;28;20490;-87
2022/03/16 07:38:48;;;;;;;64.00;34.85;;;;;;;4.13;54.40;96077.47;5070260;28;20401;-87
2022/03/16 07:41:15;;;;;;;61.72;33.45;;;;;;;4.29;54.01;96087.72;5087643;28;20027;-87
2022/03/16 07:43:41;;;;;;;63.83;33.35;;;;;;;4.25;51.77;96078.31;5086751;28;20418;-87
2022/03/16 07:46:06;;;;;;;65.82;34.63;;;;;;;4.24;51.55;96075.78;5086342;28;20016;-86
2022/03/16 07:48:34;;;;;;;72.72;37.15;;;;;;;4.24;51.33;96081.09;5090528;28;20020;-88
2022/03/16 07:51:00;;;;;;;81.40;39.63;;;;;;;4.24;51.25;96079.25;5085316;28;20017;-87
2022/03/16 07:53:25;;;;;;;73.57;38.83;;;;;;;4.31;50.76;96080.47;5087923;28;20028;-88
2022/03/16 07:55:55;;;;;;;88.45;39.28;;;;;;;4.29;50.27;96079.75;5087337;28;20028;-87
2022/03/16 07:58:21;;;;;;;85.20;41.17;;;;;;;4.20;50.83;96072.53;5086071;28;20031;-79
2022/03/16 08:00:46;;;;;;;89.13;41.55;;;;;;;4.31;51.27;96064.56;5084013;28;20028;-81
2022/03/16 08:03:13;;;;;;;86.78;41.33;;;;;;;4.36;51.66;96072.16;5066399;28;20020;-77
2022/03/16 08:05:39;;;;;;;91.50;41.85;;;;;;;4.39;52.07;96074.56;5084063;28;20550;-78
2022/03/16 08:08:04;;;;;;;78.95;40.25;;;;;;;4.57;52.65;96069.59;5080352;28;20046;-80
2022/03/16 08:10:30;;;;;;;67.53;37.58;;;;;;;4.61;52.65;96066.69;5083701;28;20089;-79
2022/03/16 08:12:55;;;;;;;75.13;36.88;;;;;;;4.73;50.93;96068.34;5072398;28;20024;-80
2022/03/16 08:15:21;;;;;;;67.80;36.03;;;;;;;4.70;49.95;96068.59;5047231;28;20024;-81
2022/03/16 08:17:46;;;;;;;67.95;34.45;;;;;;;4.61;50.20;96058.72;5064134;28;20044;-88
2022/03/16 08:20:12;;;;;;;73.43;36.92;;;;;;;4.57;50.47;96053.66;5050034;28;20476;-90
2022/03/16 08:22:37;;;;;;;76.97;34.15;;;;;;;4.61;50.38;96048.91;5069452;28;20457;-79
2022/03/16 08:25:07;;;;;;;77.80;35.40;;;;;;;4.77;51.07;96043.19;5029630;28;20028;-78
2022/03/16 08:27:33;;;;;;;68.68;34.28;;;;;;;4.72;51.59;96045.41;5055668;28;20046;-77
2022/03/16 08:29:58;;;;;;;79.65;36.85;;;;;;;4.57;51.37;96042.16;5049690;28;20119;-83
2022/03/16 08:32:24;;;;;;;69.55;36.22;;;;;;;4.70;50.93;96052.63;5085229;28;20059;-82
2022/03/16 08:34:50;;;;;;;84.22;35.95;;;;;;;4.86;50.34;96046.06;5078717;28;20028;-86
2022/03/16 08:37:17;;;;;;;74.55;38.15;;;;;;;5.11;50.03;96044.03;5083194;28;20028;-86
2022/03/16 08:39:42;;;;;;;82.38;38.65;;;;;;;5.24;49.90;96052.66;5065945;28;20542;-85
2022/03/16 08:42:08;;;;;;;69.47;40.03;;;;;;;5.38;48.88;96045.34;5065412;28;20110;-83
2022/03/16 08:44:34;;;;;;;87.35;39.47;;;;;;;5.44;48.93;96047.50;5066047;28;20478;-85
2022/03/16 08:46:59;;;;;;;83.45;40.40;;;;;;;5.46;49.07;96044.72;5048187;28;20077;-81
2022/03/16 08:49:25;;;;;;;80.55;39.58;;;;;;;5.22;49.95;96036.03;5084175;28;20031;-77
2022/03/16 08:51:50;;;;;;;64.50;34.20;;;;;;;5.11;49.21;96036.06;5064903;28;20016;-85
2022/03/16 08:54:16;;;;;;;63.78;33.55;;;;;;;5.32;48.67;96028.09;5082115;28;20035;-82
2022/03/16 08:56:45;;;;;;;58.13;32.67;;;;;;;5.48;48.28;96034.78;5078057;28;20115;-83
2022/03/16 08:59:10;;;;;;;49.58;25.27;;;;;;;5.59;46.97;96028.53;5081518;28;20535;-84
2022/03/16 09:01:36;;;;;;;66.63;29.92;;;;;;;5.53;48.00;96028.09;5078687;28;20030;-83
2022/03/16 09:04:02;;;;;;;51.40;27.35;;;;;;;5.29;47.51;96026.53;5078868;28;20032;-83
2022/03/16 09:06:28;;;;;;;53.38;28.83;;;;;;;5.25;48.20;96034.91;5063924;28;20089;-83
2022/03/16 09:08:53;;;;;;;58.65;28.40;;;;;;;5.46;47.11;96040.25;5081627;28;20028;-83
2022/03/16 09:11:20;;;;;;;51.78;26.00;;;;;;;5.61;47.61;96032.75;5080115;28;20874;-82
2022/03/16 09:13:47;;;;;;;55.38;28.13;;;;;;;5.69;46.36;96030.28;5077653;28;20717;-84
2022/03/16 09:16:13;;;;;;;44.55;26.88;;;;;;;5.87;46.73;96035.00;5080955;28;20028;-84
2022/03/16 09:18:38;;;;;;;53.00;27.30;;;;;;;5.75;46.50;96036.91;5078947;28;20410;-83
2022/03/16 09:21:04;;;;;;;62.42;28.35;;;;;;;5.92;45.78;96037.25;5084618;28;20024;-83
2022/03/16 09:23:31;;;;;;;53.03;26.10;;;;;;;6.15;45.29;96032.63;5083552;28;20035;-83
2022/03/16 09:26:00;;;;;;;45.85;26.40;;;;;;;6.36;45.74;96045.03;5080907;28;20038;-84
2022/03/16 09:28:26;;;;;;;52.17;27.08;;;;;;;6.41;46.17;96033.97;5063932;28;20482;-83
2022/03/16 09:30:51;;;;;;;46.50;25.98;;;;;;;6.52;45.25;96027.69;5079262;28;20035;-85
2022/03/16 09:33:17;;;;;;;42.20;23.20;;;;;;;6.65;44.95;96036.28;5067428;28;20055;-83
2022/03/16 09:35:44;;;;;;;40.40;23.45;;;;;;;6.74;44.71;96039.94;5084044;28;20043;-83
2022/03/16 09:38:10;;;;;;;44.00;22.95;;;;;;;6.83;44.33;96040.94;5068023;28;20032;-83
2022/03/16 09:40:36;;;;;;;40.05;22.42;;;;;;;6.90;44.79;96034.06;5082767;28;20036;-84
2022/03/16 09:43:06;;;;;;;50.85;23.85;;;;;;;6.99;44.53;96036.88;5082965;28;20498;-85
2022/03/16 09:45:32;;;;;;;45.78;24.70;;;;;;;7.00;43.95;96025.22;5084655;28;20028;-83
2022/03/16 09:47:58;;;;;;;45.58;24.38;;;;;;;7.07;44.46;96023.69;5062999;28;20452;-83
2022/03/16 09:50:24;;;;;;;48.38;24.42;;;;;;;7.17;44.16;96029.03;5080256;28;20036;-82
2022/03/16 09:52:51;;;;;;;47.05;24.35;;;;;;;7.26;43.66;96032.66;5081854;28;20027;-83
2022/03/16 09:55:17;;;;;;;46.42;24.88;;;;;;;7.19;43.95;96026.22;5082182;28;20043;-84
2022/03/16 09:57:43;;;;;;;45.58;24.77;;;;;;;7.19;44.12;96026.22;5081352;28;20032;-84
2022/03/16 10:00:12;;;;;;;46.80;25.58;;;;;;;7.19;43.76;96023.53;5082805;28;20101;-83
2022/03/16 10:02:37;;;;;;;49.67;24.25;;;;;;;7.39;43.76;96019.00;5079237;28;20035;-81
2022/03/16 10:05:07;;;;;;;42.03;23.55;;;;;;;7.29;44.90;96003.00;5081731;28;20032;-84
2022/03/16 10:07:34;;;;;;;43.15;23.92;;;;;;;7.33;44.54;96011.59;5083904;28;20046;-85
2022/03/16 10:15:28;;;;;;;47.15;24.77;;;;;;;7.22;44.09;96001.91;5083282;28;20128;-83
2022/03/16 10:17:59;;;;;;;56.55;25.45;;;;;;;7.13;44.83;95992.91;5081446;28;20044;-83
2022/03/16 10:20:28;;;;;;;49.83;24.80;;;;;;;7.27;45.08;96000.50;5082665;28;20796;-84
2022/03/16 10:23:01;;;;;;;43.47;24.38;;;;;;;7.29;44.69;96000.34;5081095;28;20024;-84
2022/03/16 10:25:27;;;;;;;53.50;26.02;;;;;;;7.27;44.21;96002.34;5084024;28;20034;-82
2022/03/16 10:28:11;;;;;;;46.92;24.52;;;;;;;7.43;44.03;95999.09;5065351;28;20101;-83
2022/03/16 10:30:52;;;;;;;45.55;24.10;;;;;;;7.50;43.97;95994.84;5062880;28;20052;-83
2022/03/16 10:33:19;;;;;;;45.42;24.55;;;;;;;7.62;43.81;96002.69;5066195;28;20028;-85
2022/03/16 10:35:55;;;;;;;44.75;24.00;;;;;;;7.64;44.15;96014.06;5083324;28;20034;-86
2022/03/16 10:38:21;;;;;;;50.83;24.95;;;;;;;7.66;44.09;96004.91;5062130;28;20947;-82
2022/03/16 10:40:46;;;;;;;44.85;23.55;;;;;;;7.68;43.79;96007.44;5082416;28;20050;-84
2022/03/16 10:49:05;;;;;;;43.95;25.35;;;;;;;7.77;43.82;96005.75;5080577;28;20477;-84
2022/03/16 10:51:31;;;;;;;50.13;25.10;;;;;;;7.76;43.16;95993.38;5063472;28;20438;-82
2022/03/16 10:53:58;;;;;;;45.60;24.15;;;;;;;7.81;43.32;95991.09;5082856;28;20497;-84
2022/03/16 10:56:23;;;;;;;41.38;23.77;;;;;;;7.85;43.19;95991.66;5081635;28;20028;-85
2022/03/16 10:58:52;;;;;;;42.47;23.73;;;;;;;7.85;42.91;95991.66;5083354;28;20024;-85
2022/03/16 11:01:17;;;;;;;46.20;24.13;;;;;;;7.91;42.98;95991.06;5063233;28;20044;-83
2022/03/16 11:03:44;;;;;;;46.47;25.33;;;;;;;7.91;43.10;95993.75;5082329;28;20538;-82
2022/03/16 11:06:09;;;;;;;45.92;23.63;;;;;;;7.94;43.12;95976.56;5064163;28;20024;-82
2022/03/16 11:08:37;;;;;;;42.78;24.92;;;;;;;8.02;43.26;95976.69;5078405;28;20510;-82
2022/03/16 11:13:27;;;;;;;48.03;25.33;;;;;;;7.91;43.32;95959.84;5053568;28;20035;-83
2022/03/16 11:13:49;;;;;;;44.83;24.42;;;;;;;7.77;43.49;95955.84;5079540;28;20024;-80
2022/03/16 11:16:14;;;;;;;50.20;25.52;;;;;;;7.73;43.69;95945.59;5081651;28;20028;-79
2022/03/16 11:18:39;;;;;;;58.30;26.52;;;;;;;7.68;44.41;95946.03;5079723;28;20039;-82
2022/03/16 11:21:09;;;;;;;48.67;25.80;;;;;;;7.71;44.16;95932.38;5081396;28;20024;-84
2022/03/16 11:26:51;;;;;;;54.60;24.10;;;;;;;7.85;43.88;95940.91;5065158;28;20097;-84
2022/03/16 11:29:16;;;;;;;48.45;24.88;;;;;;;7.81;44.66;95934.16;5082942;28;20028;-83
2022/03/16 11:31:42;;;;;;;56.55;26.70;;;;;;;7.88;43.55;95919.25;5079024;28;20104;-83
2022/03/16 11:34:10;;;;;;;56.47;24.92;;;;;;;7.88;43.78;95919.25;5064162;28;20078;-84